Terminal Aerodrome Forecast
Issued by NWS

Home | Current Version | Previous Version | Text Only | Print | Product List | Glossary On
Versions: 1 2 3 4 5 6 7 8 9 10 11 12 13 14 15 16
000
FTUS42 KTAE 280836 AAB
TAFABY
TAF AMD
KABY 280836Z 2809/0106 00000KT 1SM BR OVC002
     FM281500 17008KT P6SM BKN015
     FM281800 19010KT P6SM SCT040 BKN200=

USA.gov is the U.S. government's official web portal to all federal, state and local government web resources and services.